sensor_id;sensor_type;location;lat;lon;timestamp;P1;durP1;ratioP1;P2;durP2;ratioP2
66919;SDS011;53831;52.090;17.026;2022-11-14T00:01:08;54.05;;;22.83;;
66919;SDS011;53831;52.090;17.026;2022-11-14T00:02:29;55.67;;;22.52;;
66919;SDS011;53831;52.090;17.026;2022-11-14T00:03:48;57.40;;;23.40;;
66919;SDS011;53831;52.090;17.026;2022-11-14T00:05:08;51.75;;;21.27;;
66919;SDS011;53831;52.090;17.026;2022-11-14T00:06:28;59.35;;;23.17;;
66919;SDS011;53831;52.090;17.026;2022-11-14T00:07:47;53.15;;;22.45;;
66919;SDS011;53831;52.090;17.026;2022-11-14T00:09:06;55.60;;;22.23;;
66919;SDS011;53831;52.090;17.026;2022-11-14T00:10:25;59.10;;;21.52;;
66919;SDS011;53831;52.090;17.026;2022-11-14T00:11:45;53.30;;;24.23;;
66919;SDS011;53831;52.090;17.026;2022-11-14T00:13:04;62.63;;;25.42;;
66919;SDS011;53831;52.090;17.026;2022-11-14T00:14:23;63.95;;;23.92;;
66919;SDS011;53831;52.090;17.026;2022-11-14T00:15:42;55.83;;;22.42;;
66919;SDS011;53831;52.090;17.026;2022-11-14T00:17:02;56.85;;;22.73;;
66919;SDS011;53831;52.090;17.026;2022-11-14T00:18:22;56.97;;;22.30;;
66919;SDS011;53831;52.090;17.026;2022-11-14T00:19:42;59.25;;;23.52;;
66919;SDS011;53831;52.090;17.026;2022-11-14T00:21:01;59.20;;;24.08;;
66919;SDS011;53831;52.090;17.026;2022-11-14T00:22:23;57.83;;;22.20;;
66919;SDS011;53831;52.090;17.026;2022-11-14T00:23:42;57.92;;;23.75;;
66919;SDS011;53831;52.090;17.026;2022-11-14T00:25:01;59.10;;;23.77;;
66919;SDS011;53831;52.090;17.026;2022-11-14T00:26:20;61.95;;;23.85;;
66919;SDS011;53831;52.090;17.026;2022-11-14T00:27:39;63.80;;;22.85;;
66919;SDS011;53831;52.090;17.026;2022-11-14T00:28:58;57.92;;;23.70;;
66919;SDS011;53831;52.090;17.026;2022-11-14T00:30:17;60.35;;;23.67;;
66919;SDS011;53831;52.090;17.026;2022-11-14T00:31:37;57.85;;;23.45;;
66919;SDS011;53831;52.090;17.026;2022-11-14T00:32:56;55.53;;;22.92;;
66919;SDS011;53831;52.090;17.026;2022-11-14T00:34:15;54.08;;;23.23;;
66919;SDS011;53831;52.090;17.026;2022-11-14T00:35:35;62.88;;;24.52;;
66919;SDS011;53831;52.090;17.026;2022-11-14T00:36:54;66.95;;;25.15;;
66919;SDS011;53831;52.090;17.026;2022-11-14T00:38:13;58.53;;;23.55;;
66919;SDS011;53831;52.090;17.026;2022-11-14T00:39:33;56.17;;;23.77;;
66919;SDS011;53831;52.090;17.026;2022-11-14T00:40:52;67.45;;;25.50;;
66919;SDS011;53831;52.090;17.026;2022-11-14T00:42:11;60.13;;;23.38;;
66919;SDS011;53831;52.090;17.026;2022-11-14T00:43:31;59.22;;;23.30;;
66919;SDS011;53831;52.090;17.026;2022-11-14T00:44:50;64.90;;;25.15;;
66919;SDS011;53831;52.090;17.026;2022-11-14T00:46:09;59.42;;;22.13;;
66919;SDS011;53831;52.090;17.026;2022-11-14T00:47:28;57.95;;;23.52;;
66919;SDS011;53831;52.090;17.026;2022-11-14T00:48:47;63.15;;;25.48;;
66919;SDS011;53831;52.090;17.026;2022-11-14T00:50:07;63.78;;;24.98;;
66919;SDS011;53831;52.090;17.026;2022-11-14T00:51:28;62.47;;;24.25;;
66919;SDS011;53831;52.090;17.026;2022-11-14T00:52:47;68.47;;;25.98;;
66919;SDS011;53831;52.090;17.026;2022-11-14T00:54:06;56.78;;;23.38;;
66919;SDS011;53831;52.090;17.026;2022-11-14T00:55:25;63.70;;;25.50;;
66919;SDS011;53831;52.090;17.026;2022-11-14T00:56:44;63.13;;;24.63;;
66919;SDS011;53831;52.090;17.026;2022-11-14T00:58:04;66.45;;;26.08;;
66919;SDS011;53831;52.090;17.026;2022-11-14T00:59:23;65.32;;;24.30;;
66919;SDS011;53831;52.090;17.026;2022-11-14T01:00:42;59.95;;;24.88;;
66919;SDS011;53831;52.090;17.026;2022-11-14T01:02:01;61.47;;;25.38;;
66919;SDS011;53831;52.090;17.026;2022-11-14T01:03:21;63.10;;;25.52;;
66919;SDS011;53831;52.090;17.026;2022-11-14T01:04:40;59.80;;;24.90;;
66919;SDS011;53831;52.090;17.026;2022-11-14T01:06:03;65.15;;;25.20;;
66919;SDS011;53831;52.090;17.026;2022-11-14T01:07:24;61.85;;;25.13;;
66919;SDS011;53831;52.090;17.026;2022-11-14T01:08:43;59.35;;;24.65;;
66919;SDS011;53831;52.090;17.026;2022-11-14T01:10:03;60.50;;;24.02;;
66919;SDS011;53831;52.090;17.026;2022-11-14T01:11:22;69.07;;;28.88;;
66919;SDS011;53831;52.090;17.026;2022-11-14T01:12:41;66.45;;;24.77;;
66919;SDS011;53831;52.090;17.026;2022-11-14T01:14:01;65.20;;;25.10;;
66919;SDS011;53831;52.090;17.026;2022-11-14T01:15:23;64.38;;;24.92;;
66919;SDS011;53831;52.090;17.026;2022-11-14T01:16:42;65.32;;;25.55;;
66919;SDS011;53831;52.090;17.026;2022-11-14T01:18:02;62.78;;;25.42;;
66919;SDS011;53831;52.090;17.026;2022-11-14T01:19:21;64.38;;;25.98;;
66919;SDS011;53831;52.090;17.026;2022-11-14T01:20:41;69.63;;;27.13;;
66919;SDS011;53831;52.090;17.026;2022-11-14T01:22:01;64.30;;;26.10;;
66919;SDS011;53831;52.090;17.026;2022-11-14T01:23:20;65.05;;;25.80;;
66919;SDS011;53831;52.090;17.026;2022-11-14T01:24:39;62.83;;;24.73;;
66919;SDS011;53831;52.090;17.026;2022-11-14T01:26:02;62.92;;;24.52;;
66919;SDS011;53831;52.090;17.026;2022-11-14T01:27:24;70.85;;;26.70;;
66919;SDS011;53831;52.090;17.026;2022-11-14T01:28:43;66.53;;;25.50;;
66919;SDS011;53831;52.090;17.026;2022-11-14T01:30:03;62.65;;;25.95;;
66919;SDS011;53831;52.090;17.026;2022-11-14T01:31:23;72.80;;;27.95;;
66919;SDS011;53831;52.090;17.026;2022-11-14T01:32:43;69.55;;;26.20;;
66919;SDS011;53831;52.090;17.026;2022-11-14T01:34:02;64.78;;;26.17;;
66919;SDS011;53831;52.090;17.026;2022-11-14T01:35:21;63.83;;;25.65;;
66919;SDS011;53831;52.090;17.026;2022-11-14T01:36:40;73.70;;;28.30;;
66919;SDS011;53831;52.090;17.026;2022-11-14T01:38:00;67.03;;;27.75;;
66919;SDS011;53831;52.090;17.026;2022-11-14T01:39:20;63.50;;;25.42;;
66919;SDS011;53831;52.090;17.026;2022-11-14T01:40:43;64.90;;;25.65;;
66919;SDS011;53831;52.090;17.026;2022-11-14T01:42:02;66.55;;;26.65;;
66919;SDS011;53831;52.090;17.026;2022-11-14T01:43:22;65.88;;;27.63;;
66919;SDS011;53831;52.090;17.026;2022-11-14T01:44:44;69.90;;;27.70;;
66919;SDS011;53831;52.090;17.026;2022-11-14T01:46:29;68.28;;;26.70;;
66919;SDS011;53831;52.090;17.026;2022-11-14T01:47:54;62.13;;;23.40;;
66919;SDS011;53831;52.090;17.026;2022-11-14T01:50:39;67.80;;;25.55;;
66919;SDS011;53831;52.090;17.026;2022-11-14T01:52:00;68.07;;;24.95;;
66919;SDS011;53831;52.090;17.026;2022-11-14T01:53:22;68.90;;;27.08;;
66919;SDS011;53831;52.090;17.026;2022-11-14T01:54:47;65.13;;;26.45;;
66919;SDS011;53831;52.090;17.026;2022-11-14T01:56:08;71.05;;;25.95;;
66919;SDS011;53831;52.090;17.026;2022-11-14T01:57:37;69.22;;;27.80;;
66919;SDS011;53831;52.090;17.026;2022-11-14T01:59:00;72.28;;;26.83;;
66919;SDS011;53831;52.090;17.026;2022-11-14T02:00:31;63.78;;;23.80;;
66919;SDS011;53831;52.090;17.026;2022-11-14T02:01:51;70.57;;;28.10;;
66919;SDS011;53831;52.090;17.026;2022-11-14T02:03:12;70.40;;;26.90;;
66919;SDS011;53831;52.090;17.026;2022-11-14T02:04:33;62.70;;;24.52;;
66919;SDS011;53831;52.090;17.026;2022-11-14T02:05:56;68.18;;;25.23;;
66919;SDS011;53831;52.090;17.026;2022-11-14T02:07:17;65.82;;;27.10;;
66919;SDS011;53831;52.090;17.026;2022-11-14T02:08:37;71.63;;;27.42;;
66919;SDS011;53831;52.090;17.026;2022-11-14T02:09:57;69.90;;;28.38;;
66919;SDS011;53831;52.090;17.026;2022-11-14T02:11:19;61.72;;;25.98;;
66919;SDS011;53831;52.090;17.026;2022-11-14T02:12:38;66.55;;;26.52;;
66919;SDS011;53831;52.090;17.026;2022-11-14T02:13:58;66.50;;;26.75;;
66919;SDS011;53831;52.090;17.026;2022-11-14T02:15:18;70.75;;;28.75;;
66919;SDS011;53831;52.090;17.026;2022-11-14T02:16:38;65.28;;;26.98;;
66919;SDS011;53831;52.090;17.026;2022-11-14T02:17:58;67.50;;;26.70;;
66919;SDS011;53831;52.090;17.026;2022-11-14T02:19:18;69.55;;;27.42;;
66919;SDS011;53831;52.090;17.026;2022-11-14T02:20:37;69.55;;;27.23;;
66919;SDS011;53831;52.090;17.026;2022-11-14T02:22:00;64.45;;;26.65;;
66919;SDS011;53831;52.090;17.026;2022-11-14T02:23:23;67.57;;;26.88;;
66919;SDS011;53831;52.090;17.026;2022-11-14T02:24:47;67.95;;;27.50;;
66919;SDS011;53831;52.090;17.026;2022-11-14T02:26:06;65.70;;;26.85;;
66919;SDS011;53831;52.090;17.026;2022-11-14T02:27:25;70.13;;;27.17;;
66919;SDS011;53831;52.090;17.026;2022-11-14T02:28:45;68.47;;;26.33;;
66919;SDS011;53831;52.090;17.026;2022-11-14T02:30:16;63.97;;;25.95;;
66919;SDS011;53831;52.090;17.026;2022-11-14T02:31:37;66.75;;;25.77;;
66919;SDS011;53831;52.090;17.026;2022-11-14T02:32:56;71.03;;;27.80;;
66919;SDS011;53831;52.090;17.026;2022-11-14T02:34:15;67.15;;;27.23;;
66919;SDS011;53831;52.090;17.026;2022-11-14T02:35:37;66.13;;;25.75;;
66919;SDS011;53831;52.090;17.026;2022-11-14T02:36:57;70.57;;;28.98;;
66919;SDS011;53831;52.090;17.026;2022-11-14T02:38:16;71.53;;;27.55;;
66919;SDS011;53831;52.090;17.026;2022-11-14T02:39:35;66.88;;;26.63;;
66919;SDS011;53831;52.090;17.026;2022-11-14T02:40:55;67.85;;;27.13;;
66919;SDS011;53831;52.090;17.026;2022-11-14T02:42:14;67.75;;;27.30;;
66919;SDS011;53831;52.090;17.026;2022-11-14T02:43:33;66.93;;;26.95;;
66919;SDS011;53831;52.090;17.026;2022-11-14T02:44:52;68.82;;;26.48;;
66919;SDS011;53831;52.090;17.026;2022-11-14T02:46:12;70.70;;;28.10;;
66919;SDS011;53831;52.090;17.026;2022-11-14T02:47:31;69.78;;;27.13;;
66919;SDS011;53831;52.090;17.026;2022-11-14T02:48:50;63.78;;;26.38;;
66919;SDS011;53831;52.090;17.026;2022-11-14T02:50:10;71.35;;;28.65;;
66919;SDS011;53831;52.090;17.026;2022-11-14T02:51:29;71.97;;;27.48;;
66919;SDS011;53831;52.090;17.026;2022-11-14T02:52:48;66.25;;;26.63;;
66919;SDS011;53831;52.090;17.026;2022-11-14T02:54:07;65.75;;;26.25;;
66919;SDS011;53831;52.090;17.026;2022-11-14T02:55:26;64.05;;;26.50;;
66919;SDS011;53831;52.090;17.026;2022-11-14T02:56:45;70.55;;;27.70;;
66919;SDS011;53831;52.090;17.026;2022-11-14T02:58:05;67.68;;;26.90;;
66919;SDS011;53831;52.090;17.026;2022-11-14T02:59:25;71.97;;;28.60;;
66919;SDS011;53831;52.090;17.026;2022-11-14T03:00:44;63.53;;;27.58;;
66919;SDS011;53831;52.090;17.026;2022-11-14T03:02:03;68.03;;;27.55;;
66919;SDS011;53831;52.090;17.026;2022-11-14T03:03:22;69.78;;;28.88;;
66919;SDS011;53831;52.090;17.026;2022-11-14T03:04:41;69.45;;;28.17;;
66919;SDS011;53831;52.090;17.026;2022-11-14T03:06:01;68.68;;;27.90;;
66919;SDS011;53831;52.090;17.026;2022-11-14T03:07:21;67.15;;;27.38;;
66919;SDS011;53831;52.090;17.026;2022-11-14T03:08:40;69.35;;;27.52;;
66919;SDS011;53831;52.090;17.026;2022-11-14T03:10:00;67.78;;;27.50;;
66919;SDS011;53831;52.090;17.026;2022-11-14T03:11:19;65.50;;;27.42;;
66919;SDS011;53831;52.090;17.026;2022-11-14T03:12:39;71.38;;;27.58;;
66919;SDS011;53831;52.090;17.026;2022-11-14T03:13:58;67.97;;;27.88;;
66919;SDS011;53831;52.090;17.026;2022-11-14T03:15:18;69.15;;;27.95;;
66919;SDS011;53831;52.090;17.026;2022-11-14T03:16:37;66.70;;;27.20;;
66919;SDS011;53831;52.090;17.026;2022-11-14T03:17:56;71.93;;;28.45;;
66919;SDS011;53831;52.090;17.026;2022-11-14T03:19:16;66.72;;;27.00;;
66919;SDS011;53831;52.090;17.026;2022-11-14T03:20:35;67.15;;;27.27;;
66919;SDS011;53831;52.090;17.026;2022-11-14T03:21:54;70.88;;;27.30;;
66919;SDS011;53831;52.090;17.026;2022-11-14T03:23:14;66.32;;;27.20;;
66919;SDS011;53831;52.090;17.026;2022-11-14T03:24:33;66.82;;;28.30;;
66919;SDS011;53831;52.090;17.026;2022-11-14T03:25:52;65.00;;;27.42;;
66919;SDS011;53831;52.090;17.026;2022-11-14T03:27:11;66.72;;;28.02;;
66919;SDS011;53831;52.090;17.026;2022-11-14T03:28:30;72.22;;;28.02;;
66919;SDS011;53831;52.090;17.026;2022-11-14T03:29:50;69.60;;;28.98;;
66919;SDS011;53831;52.090;17.026;2022-11-14T03:31:10;70.15;;;29.50;;
66919;SDS011;53831;52.090;17.026;2022-11-14T03:32:30;66.30;;;27.80;;
66919;SDS011;53831;52.090;17.026;2022-11-14T03:33:49;65.60;;;27.08;;
66919;SDS011;53831;52.090;17.026;2022-11-14T03:35:09;68.30;;;28.17;;
66919;SDS011;53831;52.090;17.026;2022-11-14T03:36:28;65.95;;;27.90;;
66919;SDS011;53831;52.090;17.026;2022-11-14T03:37:48;74.78;;;29.38;;
66919;SDS011;53831;52.090;17.026;2022-11-14T03:39:07;71.75;;;28.23;;
66919;SDS011;53831;52.090;17.026;2022-11-14T03:40:26;77.95;;;32.47;;
66919;SDS011;53831;52.090;17.026;2022-11-14T03:41:45;63.75;;;27.17;;
66919;SDS011;53831;52.090;17.026;2022-11-14T03:43:04;65.10;;;28.10;;
66919;SDS011;53831;52.090;17.026;2022-11-14T03:44:24;66.90;;;26.67;;
66919;SDS011;53831;52.090;17.026;2022-11-14T03:45:43;68.20;;;27.00;;
66919;SDS011;53831;52.090;17.026;2022-11-14T03:47:03;65.25;;;27.48;;
66919;SDS011;53831;52.090;17.026;2022-11-14T03:48:22;69.63;;;28.15;;
66919;SDS011;53831;52.090;17.026;2022-11-14T03:49:41;73.97;;;27.98;;
66919;SDS011;53831;52.090;17.026;2022-11-14T03:51:02;70.10;;;27.92;;
66919;SDS011;53831;52.090;17.026;2022-11-14T03:52:21;66.75;;;27.70;;
66919;SDS011;53831;52.090;17.026;2022-11-14T03:53:40;69.15;;;27.15;;
66919;SDS011;53831;52.090;17.026;2022-11-14T03:55:00;60.38;;;26.65;;
66919;SDS011;53831;52.090;17.026;2022-11-14T03:56:19;71.32;;;27.88;;
66919;SDS011;53831;52.090;17.026;2022-11-14T03:57:38;69.30;;;28.27;;
66919;SDS011;53831;52.090;17.026;2022-11-14T03:58:57;66.40;;;26.73;;
66919;SDS011;53831;52.090;17.026;2022-11-14T04:00:17;67.30;;;27.02;;
66919;SDS011;53831;52.090;17.026;2022-11-14T04:01:36;65.82;;;27.35;;
66919;SDS011;53831;52.090;17.026;2022-11-14T04:02:56;62.53;;;27.02;;
66919;SDS011;53831;52.090;17.026;2022-11-14T04:04:15;68.70;;;27.25;;
66919;SDS011;53831;52.090;17.026;2022-11-14T04:05:34;63.17;;;25.58;;
66919;SDS011;53831;52.090;17.026;2022-11-14T04:06:54;65.32;;;26.27;;
66919;SDS011;53831;52.090;17.026;2022-11-14T04:08:12;66.22;;;27.02;;
66919;SDS011;53831;52.090;17.026;2022-11-14T04:09:32;64.28;;;26.73;;
66919;SDS011;53831;52.090;17.026;2022-11-14T04:10:51;65.60;;;26.67;;
66919;SDS011;53831;52.090;17.026;2022-11-14T04:12:10;70.30;;;28.55;;
66919;SDS011;53831;52.090;17.026;2022-11-14T04:13:29;67.35;;;28.42;;
66919;SDS011;53831;52.090;17.026;2022-11-14T04:14:48;66.03;;;27.92;;
66919;SDS011;53831;52.090;17.026;2022-11-14T04:16:08;68.25;;;28.90;;
66919;SDS011;53831;52.090;17.026;2022-11-14T04:17:27;70.03;;;28.40;;
66919;SDS011;53831;52.090;17.026;2022-11-14T04:18:47;66.70;;;27.50;;
66919;SDS011;53831;52.090;17.026;2022-11-14T04:20:06;63.88;;;27.17;;
66919;SDS011;53831;52.090;17.026;2022-11-14T04:21:26;62.25;;;27.27;;
66919;SDS011;53831;52.090;17.026;2022-11-14T04:22:45;66.97;;;27.83;;
66919;SDS011;53831;52.090;17.026;2022-11-14T04:24:05;64.03;;;27.38;;
66919;SDS011;53831;52.090;17.026;2022-11-14T04:25:24;67.47;;;26.40;;
66919;SDS011;53831;52.090;17.026;2022-11-14T04:26:43;64.88;;;26.90;;
66919;SDS011;53831;52.090;17.026;2022-11-14T04:28:03;66.95;;;27.92;;
66919;SDS011;53831;52.090;17.026;2022-11-14T04:29:22;66.30;;;26.85;;
66919;SDS011;53831;52.090;17.026;2022-11-14T04:30:41;65.80;;;26.75;;
66919;SDS011;53831;52.090;17.026;2022-11-14T04:32:03;64.60;;;27.60;;
66919;SDS011;53831;52.090;17.026;2022-11-14T04:33:22;66.45;;;27.95;;
66919;SDS011;53831;52.090;17.026;2022-11-14T04:34:41;64.32;;;26.90;;
66919;SDS011;53831;52.090;17.026;2022-11-14T04:36:00;69.28;;;28.23;;
66919;SDS011;53831;52.090;17.026;2022-11-14T04:37:19;70.50;;;28.38;;
66919;SDS011;53831;52.090;17.026;2022-11-14T04:38:39;68.30;;;27.88;;
66919;SDS011;53831;52.090;17.026;2022-11-14T04:39:58;67.47;;;26.83;;
66919;SDS011;53831;52.090;17.026;2022-11-14T04:41:20;64.43;;;27.38;;
66919;SDS011;53831;52.090;17.026;2022-11-14T04:42:39;66.05;;;26.80;;
66919;SDS011;53831;52.090;17.026;2022-11-14T04:43:58;68.43;;;27.05;;
66919;SDS011;53831;52.090;17.026;2022-11-14T04:45:18;63.65;;;25.52;;
66919;SDS011;53831;52.090;17.026;2022-11-14T04:46:37;63.10;;;26.77;;
66919;SDS011;53831;52.090;17.026;2022-11-14T04:47:57;69.25;;;28.10;;
66919;SDS011;53831;52.090;17.026;2022-11-14T04:49:16;62.72;;;26.05;;
66919;SDS011;53831;52.090;17.026;2022-11-14T04:50:35;64.47;;;26.58;;
66919;SDS011;53831;52.090;17.026;2022-11-14T04:51:54;63.60;;;25.88;;
66919;SDS011;53831;52.090;17.026;2022-11-14T04:53:13;66.32;;;27.13;;
66919;SDS011;53831;52.090;17.026;2022-11-14T04:54:33;70.00;;;27.25;;
66919;SDS011;53831;52.090;17.026;2022-11-14T04:55:52;66.40;;;27.95;;
66919;SDS011;53831;52.090;17.026;2022-11-14T04:57:11;66.50;;;27.85;;
66919;SDS011;53831;52.090;17.026;2022-11-14T04:58:30;63.28;;;26.67;;
66919;SDS011;53831;52.090;17.026;2022-11-14T04:59:49;67.82;;;27.90;;
66919;SDS011;53831;52.090;17.026;2022-11-14T05:01:09;68.20;;;27.77;;
66919;SDS011;53831;52.090;17.026;2022-11-14T05:02:29;65.30;;;27.20;;
66919;SDS011;53831;52.090;17.026;2022-11-14T05:03:50;60.53;;;26.35;;
66919;SDS011;53831;52.090;17.026;2022-11-14T05:05:09;64.32;;;26.13;;
66919;SDS011;53831;52.090;17.026;2022-11-14T05:06:28;61.17;;;26.08;;
66919;SDS011;53831;52.090;17.026;2022-11-14T05:07:47;63.60;;;26.10;;
66919;SDS011;53831;52.090;17.026;2022-11-14T05:09:07;60.85;;;25.65;;
66919;SDS011;53831;52.090;17.026;2022-11-14T05:10:26;62.33;;;25.60;;
66919;SDS011;53831;52.090;17.026;2022-11-14T05:11:45;63.55;;;26.05;;
66919;SDS011;53831;52.090;17.026;2022-11-14T05:13:04;62.53;;;26.65;;
66919;SDS011;53831;52.090;17.026;2022-11-14T05:14:23;59.75;;;25.48;;
66919;SDS011;53831;52.090;17.026;2022-11-14T05:15:43;62.25;;;26.60;;
66919;SDS011;53831;52.090;17.026;2022-11-14T05:17:02;63.10;;;25.90;;
66919;SDS011;53831;52.090;17.026;2022-11-14T05:18:21;62.25;;;25.80;;
66919;SDS011;53831;52.090;17.026;2022-11-14T05:19:40;59.55;;;26.13;;
66919;SDS011;53831;52.090;17.026;2022-11-14T05:20:59;61.30;;;25.42;;
66919;SDS011;53831;52.090;17.026;2022-11-14T05:22:19;66.03;;;27.77;;
66919;SDS011;53831;52.090;17.026;2022-11-14T05:23:38;61.65;;;24.60;;
66919;SDS011;53831;52.090;17.026;2022-11-14T05:24:58;61.05;;;24.80;;
66919;SDS011;53831;52.090;17.026;2022-11-14T05:26:17;59.67;;;25.65;;
66919;SDS011;53831;52.090;17.026;2022-11-14T05:27:37;60.65;;;25.58;;
66919;SDS011;53831;52.090;17.026;2022-11-14T05:28:56;57.72;;;24.90;;
66919;SDS011;53831;52.090;17.026;2022-11-14T05:30:15;59.40;;;25.23;;
66919;SDS011;53831;52.090;17.026;2022-11-14T05:31:34;61.95;;;24.85;;
66919;SDS011;53831;52.090;17.026;2022-11-14T05:32:54;61.40;;;25.92;;
66919;SDS011;53831;52.090;17.026;2022-11-14T05:34:13;57.85;;;25.10;;
66919;SDS011;53831;52.090;17.026;2022-11-14T05:35:32;55.03;;;24.63;;
66919;SDS011;53831;52.090;17.026;2022-11-14T05:36:51;56.78;;;24.65;;
66919;SDS011;53831;52.090;17.026;2022-11-14T05:38:10;60.47;;;25.58;;
66919;SDS011;53831;52.090;17.026;2022-11-14T05:39:29;61.20;;;23.73;;
66919;SDS011;53831;52.090;17.026;2022-11-14T05:41:03;63.72;;;25.70;;
66919;SDS011;53831;52.090;17.026;2022-11-14T05:42:30;62.65;;;26.38;;
66919;SDS011;53831;52.090;17.026;2022-11-14T05:43:50;57.50;;;25.00;;
66919;SDS011;53831;52.090;17.026;2022-11-14T05:45:09;60.75;;;26.23;;
66919;SDS011;53831;52.090;17.026;2022-11-14T05:46:29;56.33;;;25.10;;
66919;SDS011;53831;52.090;17.026;2022-11-14T05:47:48;61.42;;;26.02;;
66919;SDS011;53831;52.090;17.026;2022-11-14T05:49:07;57.75;;;23.98;;
66919;SDS011;53831;52.090;17.026;2022-11-14T05:50:26;60.15;;;25.30;;
66919;SDS011;53831;52.090;17.026;2022-11-14T05:51:45;62.72;;;25.98;;
66919;SDS011;53831;52.090;17.026;2022-11-14T05:53:05;56.88;;;25.33;;
66919;SDS011;53831;52.090;17.026;2022-11-14T05:54:24;55.63;;;24.52;;
66919;SDS011;53831;52.090;17.026;2022-11-14T05:55:44;59.63;;;24.58;;
66919;SDS011;53831;52.090;17.026;2022-11-14T05:57:03;59.95;;;25.90;;
66919;SDS011;53831;52.090;17.026;2022-11-14T05:58:23;56.90;;;24.88;;
66919;SDS011;53831;52.090;17.026;2022-11-14T05:59:41;60.38;;;25.23;;
66919;SDS011;53831;52.090;17.026;2022-11-14T06:01:05;55.42;;;22.92;;
66919;SDS011;53831;52.090;17.026;2022-11-14T06:02:28;59.05;;;24.65;;
66919;SDS011;53831;52.090;17.026;2022-11-14T06:03:47;61.70;;;24.50;;
66919;SDS011;53831;52.090;17.026;2022-11-14T06:05:07;55.17;;;23.30;;
66919;SDS011;53831;52.090;17.026;2022-11-14T06:06:26;60.80;;;25.08;;
66919;SDS011;53831;52.090;17.026;2022-11-14T06:07:45;55.05;;;24.05;;
66919;SDS011;53831;52.090;17.026;2022-11-14T06:09:05;58.83;;;26.63;;
66919;SDS011;53831;52.090;17.026;2022-11-14T06:10:25;59.20;;;26.35;;
66919;SDS011;53831;52.090;17.026;2022-11-14T06:11:44;61.17;;;26.15;;
66919;SDS011;53831;52.090;17.026;2022-11-14T06:13:03;57.90;;;25.42;;
66919;SDS011;53831;52.090;17.026;2022-11-14T06:14:22;59.78;;;26.77;;
66919;SDS011;53831;52.090;17.026;2022-11-14T06:15:42;62.45;;;26.33;;
66919;SDS011;53831;52.090;17.026;2022-11-14T06:17:01;57.55;;;24.17;;
66919;SDS011;53831;52.090;17.026;2022-11-14T06:18:20;56.53;;;23.65;;
66919;SDS011;53831;52.090;17.026;2022-11-14T06:19:39;51.58;;;23.55;;
66919;SDS011;53831;52.090;17.026;2022-11-14T06:21:05;55.22;;;24.30;;
66919;SDS011;53831;52.090;17.026;2022-11-14T06:22:29;52.85;;;22.80;;
66919;SDS011;53831;52.090;17.026;2022-11-14T06:23:48;53.10;;;23.10;;
66919;SDS011;53831;52.090;17.026;2022-11-14T06:25:08;62.97;;;25.80;;
66919;SDS011;53831;52.090;17.026;2022-11-14T06:26:28;57.03;;;24.52;;
66919;SDS011;53831;52.090;17.026;2022-11-14T06:27:48;51.83;;;22.67;;
66919;SDS011;53831;52.090;17.026;2022-11-14T06:29:08;58.72;;;24.98;;
66919;SDS011;53831;52.090;17.026;2022-11-14T06:30:28;53.22;;;24.52;;
66919;SDS011;53831;52.090;17.026;2022-11-14T06:31:47;58.95;;;24.95;;
66919;SDS011;53831;52.090;17.026;2022-11-14T06:33:06;52.95;;;23.00;;
66919;SDS011;53831;52.090;17.026;2022-11-14T06:34:25;50.67;;;22.67;;
66919;SDS011;53831;52.090;17.026;2022-11-14T06:35:44;56.63;;;23.38;;
66919;SDS011;53831;52.090;17.026;2022-11-14T06:37:04;59.92;;;24.23;;
66919;SDS011;53831;52.090;17.026;2022-11-14T06:38:23;50.90;;;22.73;;
66919;SDS011;53831;52.090;17.026;2022-11-14T06:39:42;53.33;;;23.42;;
66919;SDS011;53831;52.090;17.026;2022-11-14T06:41:08;52.47;;;23.15;;
66919;SDS011;53831;52.090;17.026;2022-11-14T06:42:27;52.17;;;22.38;;
66919;SDS011;53831;52.090;17.026;2022-11-14T06:43:47;53.67;;;23.35;;
66919;SDS011;53831;52.090;17.026;2022-11-14T06:45:09;52.25;;;22.08;;
66919;SDS011;53831;52.090;17.026;2022-11-14T06:46:28;53.92;;;23.05;;
66919;SDS011;53831;52.090;17.026;2022-11-14T06:47:47;53.55;;;22.50;;
66919;SDS011;53831;52.090;17.026;2022-11-14T06:49:06;50.38;;;20.95;;
66919;SDS011;53831;52.090;17.026;2022-11-14T06:50:26;47.45;;;20.98;;
66919;SDS011;53831;52.090;17.026;2022-11-14T06:51:45;49.33;;;22.15;;
66919;SDS011;53831;52.090;17.026;2022-11-14T06:53:03;51.17;;;21.75;;
66919;SDS011;53831;52.090;17.026;2022-11-14T06:54:23;50.45;;;22.23;;
66919;SDS011;53831;52.090;17.026;2022-11-14T06:55:42;47.58;;;21.02;;
66919;SDS011;53831;52.090;17.026;2022-11-14T06:57:01;51.55;;;22.08;;
66919;SDS011;53831;52.090;17.026;2022-11-14T06:58:21;50.90;;;21.23;;
66919;SDS011;53831;52.090;17.026;2022-11-14T06:59:40;50.47;;;21.50;;
66919;SDS011;53831;52.090;17.026;2022-11-14T07:01:03;50.53;;;21.05;;
66919;SDS011;53831;52.090;17.026;2022-11-14T07:02:26;49.65;;;22.23;;
66919;SDS011;53831;52.090;17.026;2022-11-14T07:03:46;49.33;;;22.10;;
66919;SDS011;53831;52.090;17.026;2022-11-14T07:05:06;50.53;;;22.05;;
66919;SDS011;53831;52.090;17.026;2022-11-14T07:06:25;49.17;;;21.67;;
66919;SDS011;53831;52.090;17.026;2022-11-14T07:07:45;52.95;;;23.02;;
66919;SDS011;53831;52.090;17.026;2022-11-14T07:09:04;55.00;;;22.25;;
66919;SDS011;53831;52.090;17.026;2022-11-14T07:10:23;50.70;;;21.33;;
66919;SDS011;53831;52.090;17.026;2022-11-14T07:11:43;48.95;;;22.10;;
66919;SDS011;53831;52.090;17.026;2022-11-14T07:13:04;50.53;;;22.90;;
66919;SDS011;53831;52.090;17.026;2022-11-14T07:14:23;46.70;;;20.25;;
66919;SDS011;53831;52.090;17.026;2022-11-14T07:15:51;47.50;;;21.35;;
66919;SDS011;53831;52.090;17.026;2022-11-14T07:17:11;50.72;;;20.67;;
66919;SDS011;53831;52.090;17.026;2022-11-14T07:18:30;50.22;;;21.95;;
66919;SDS011;53831;52.090;17.026;2022-11-14T07:19:51;48.33;;;21.38;;
66919;SDS011;53831;52.090;17.026;2022-11-14T07:21:10;48.50;;;21.85;;
66919;SDS011;53831;52.090;17.026;2022-11-14T07:22:31;46.50;;;20.55;;
66919;SDS011;53831;52.090;17.026;2022-11-14T07:23:50;47.78;;;21.58;;
66919;SDS011;53831;52.090;17.026;2022-11-14T07:25:09;51.00;;;22.13;;
66919;SDS011;53831;52.090;17.026;2022-11-14T07:26:28;48.97;;;22.10;;
66919;SDS011;53831;52.090;17.026;2022-11-14T07:27:48;49.13;;;21.38;;
66919;SDS011;53831;52.090;17.026;2022-11-14T07:29:07;51.05;;;21.88;;
66919;SDS011;53831;52.090;17.026;2022-11-14T07:30:26;52.97;;;22.38;;
66919;SDS011;53831;52.090;17.026;2022-11-14T07:31:45;48.60;;;21.45;;
66919;SDS011;53831;52.090;17.026;2022-11-14T07:33:05;51.15;;;21.45;;
66919;SDS011;53831;52.090;17.026;2022-11-14T07:34:24;48.15;;;21.83;;
66919;SDS011;53831;52.090;17.026;2022-11-14T07:35:43;49.63;;;21.65;;
66919;SDS011;53831;52.090;17.026;2022-11-14T07:37:02;50.13;;;21.25;;
66919;SDS011;53831;52.090;17.026;2022-11-14T07:38:21;49.63;;;22.42;;
66919;SDS011;53831;52.090;17.026;2022-11-14T07:39:40;53.92;;;22.08;;
66919;SDS011;53831;52.090;17.026;2022-11-14T07:41:03;57.25;;;23.25;;
66919;SDS011;53831;52.090;17.026;2022-11-14T07:42:27;51.83;;;23.75;;